In Rescue
 
Open Full Screen Window  High Contrast Mode
Wind Gusting 14 knots
09
April 19, 2021 10:11 PM EDT
Weather Information
Wind Direction
  330 °
Wind Speed
  09 kt (10 mph)
Wind Gust
  14 kt (16 mph)
Altimeter
29.85 in
Visibility
10 SM
Temperature
09° C
48° F
Dewpoint
04° C
39° F
Humidity
71%
1hr Rain Fall
00.00 in.
24hr Rain Fall
00.00 in.
Sky Condition
Overcast @ 9,500 ft
VFR

METAR KPOV 200211Z AUTO 33009G14KT 10SM OVC095 09/04 A2985 RMK AO2 T00940035 PWINO

FAA Disclaimer: The data displayed is for advisory purposes only and is not to be used for flight planning or operations.